Boger City, North Carolina
Current Conditions -  °F | °C
As of 1:35 PM on Monday 26 Jan 2015 (Local Time) from KIPJ Reporting Station
Scattered Clouds Scattered Clouds  
Wind Chill: 52°   Ceiling: Unl
Heat Index: 52°   Visibility: 10mi
Dew Point: 36°   Wind: 6mph
Humidity: 55%   Direction: 270°W
Pressure: 29.63"   Gusts: NA
Location:  35.4951°N, 81.2237°W
Report Text: KIPJ 261835Z AUTO 27005KT 10SM SCT100 11/02 A2963 RMK AO2 T01090021
Loading
Personal Weather Stations






























Interactive Weather Map New forecast layout! Learn more

10-Day Weather Forecast

Advertisements
Track Severe Weather on mobile